Time;durP1;ratioP1;P1;durP2;ratioP2;P2;SDS_P1;SDS_P2;PMS_P1;PMS_P2;Temp;Humidity;BMP_temperature;BMP_pressure;BME280_temperature;BME280_humidity;BME280_pressure;Samples;Min_cycle;Max_cycle;Signal;HPM_P1;HPM_P2
2022/02/12 00:00:46;;;;;;;10.75;5.88;;;;;;;4.31;78.04;101076.91;6296053;28;20040;-73
2022/02/12 00:03:47;;;;;;;12.90;6.63;;;;;;;4.28;78.36;101086.44;6305043;28;20498;-69
2022/02/12 00:06:48;;;;;;;11.77;6.38;;;;;;;4.25;78.70;101084.78;6304863;28;20488;-69
2022/02/12 00:09:49;;;;;;;11.35;5.82;;;;;;;4.16;79.86;101095.25;6318492;28;20110;-69
2022/02/12 00:12:50;;;;;;;11.98;6.35;;;;;;;4.16;79.49;101106.47;6279749;28;20056;-69
2022/02/12 00:15:50;;;;;;;13.82;6.80;;;;;;;4.09;80.57;101102.28;6310012;28;20036;-69
2022/02/12 00:18:51;;;;;;;12.27;6.60;;;;;;;3.94;82.31;101115.47;6271686;28;20079;-68
2022/02/12 00:21:52;;;;;;;12.18;6.57;;;;;;;3.96;81.64;101108.53;6287802;28;20066;-69
2022/02/12 00:24:53;;;;;;;13.30;7.00;;;;;;;3.86;81.84;101128.50;6304774;28;20094;-69
2022/02/12 00:27:53;;;;;;;11.82;6.85;;;;;;;3.81;82.69;101130.31;6279660;28;20052;-68
2022/02/12 00:30:54;;;;;;;12.60;6.90;;;;;;;3.76;82.84;101132.94;6279380;28;20071;-69
2022/02/12 00:33:55;;;;;;;12.80;7.32;;;;;;;3.71;84.00;101139.06;6296750;28;20127;-69
2022/02/12 00:36:56;;;;;;;14.43;7.03;;;;;;;3.60;84.45;101157.28;6278628;28;20411;-68
2022/02/12 00:39:58;;;;;;;14.05;6.72;;;;;;;3.57;84.61;101154.75;6296666;28;20071;-69
2022/02/12 00:42:59;;;;;;;13.57;7.00;;;;;;;3.51;85.26;101157.44;6297264;28;20040;-70
2022/02/12 00:45:59;;;;;;;13.65;6.82;;;;;;;3.51;86.66;101154.84;6279157;28;20067;-69
2022/02/12 00:49:00;;;;;;;14.80;7.68;;;;;;;3.43;85.98;101162.69;6279360;28;20057;-69
2022/02/12 00:52:01;;;;;;;16.27;7.47;;;;;;;3.32;87.28;101168.00;6296737;28;20393;-69
2022/02/12 00:55:02;;;;;;;13.68;7.00;;;;;;;3.16;88.54;101161.31;6295893;28;20517;-69
2022/02/12 00:58:03;;;;;;;15.13;7.70;;;;;;;3.00;90.26;101173.53;6279143;28;20048;-69
2022/02/12 01:01:05;;;;;;;15.95;8.50;;;;;;;2.91;91.65;101187.41;6262374;28;20057;-69
2022/02/12 01:04:06;;;;;;;15.48;8.40;;;;;;;2.90;92.57;101188.25;6296880;28;20045;-69
2022/02/12 01:07:07;;;;;;;14.80;8.25;;;;;;;2.86;93.21;101189.16;6296673;28;20052;-69
2022/02/12 01:10:09;;;;;;;15.50;8.95;;;;;;;2.85;93.84;101195.22;6278965;28;20052;-68
2022/02/12 01:13:10;;;;;;;17.98;9.18;;;;;;;2.78;94.39;101186.69;6296439;28;20047;-68
2022/02/12 01:16:11;;;;;;;17.85;9.98;;;;;;;2.63;96.26;101190.25;6295897;28;20044;-69
2022/02/12 01:19:12;;;;;;;16.50;9.63;;;;;;;2.55;97.48;101189.50;6261335;28;20412;-69
2022/02/12 01:22:13;;;;;;;18.77;9.52;;;;;;;2.43;99.15;101194.78;6295719;28;20048;-70
2022/02/12 01:25:14;;;;;;;17.17;9.82;;;;;;;2.34;100.00;101200.00;6277919;28;20119;-69
2022/02/12 01:28:15;;;;;;;19.85;9.77;;;;;;;2.38;100.00;101199.09;6277827;28;20119;-69
2022/02/12 01:31:16;;;;;;;20.08;10.70;;;;;;;2.43;99.76;101192.22;6295661;28;20041;-69
2022/02/12 01:34:17;;;;;;;19.05;10.52;;;;;;;2.43;99.53;101205.09;6244596;28;20524;-69
2022/02/12 01:37:18;;;;;;;22.08;10.45;;;;;;;2.41;99.55;101207.66;6261138;28;20060;-69
2022/02/12 01:40:24;;;;;;;19.52;10.60;;;;;;;2.43;99.35;101210.25;6261196;28;20106;-70
2022/02/12 01:43:25;;;;;;;21.38;10.07;;;;;;;2.45;98.83;101223.09;6295529;28;20037;-69
2022/02/12 01:46:26;;;;;;;21.13;11.02;;;;;;;2.47;97.77;101214.50;6277669;28;20064;-69
2022/02/12 01:49:28;;;;;;;18.50;10.07;;;;;;;2.42;97.33;101229.97;6277726;28;20056;-69
2022/02/12 01:52:31;;;;;;;20.80;10.67;;;;;;;2.30;97.02;101221.50;6302350;28;20046;-68
2022/02/12 01:55:32;;;;;;;18.95;10.25;;;;;;;2.27;97.42;101227.53;6285837;28;20150;-68
2022/02/12 01:58:33;;;;;;;21.35;10.70;;;;;;;2.20;97.76;101237.03;6320385;28;20036;-68
2022/02/12 02:01:34;;;;;;;19.25;11.30;;;;;;;2.11;98.80;101234.50;6302357;28;20036;-68
2022/02/12 02:04:37;;;;;;;21.27;11.27;;;;;;;2.05;98.31;101244.84;6302442;28;20042;-68
2022/02/12 02:07:40;;;;;;;19.30;10.90;;;;;;;2.00;98.43;101237.16;6324879;28;20059;-68
2022/02/12 02:10:41;;;;;;;19.35;10.98;;;;;;;1.93;98.63;101248.34;6325002;28;20511;-68
2022/02/12 02:13:42;;;;;;;25.83;11.95;;;;;;;1.80;100.00;101251.88;6306731;28;20131;-68
2022/02/12 02:16:44;;;;;;;17.52;10.07;;;;;;;1.70;100.00;101253.66;6324845;28;20043;-69
2022/02/12 02:19:45;;;;;;;22.83;10.88;;;;;;;1.72;100.00;101253.66;6324628;28;20066;-68
2022/02/12 02:22:54;;;;;;;17.70;10.40;;;;;;;1.70;100.00;101263.94;6324432;28;20561;-69
2022/02/12 02:25:55;;;;;;;26.25;10.48;;;;;;;1.70;99.33;101266.50;6324455;28;20043;-68
2022/02/12 02:28:55;;;;;;;20.75;10.70;;;;;;;1.65;99.87;101272.53;6273248;28;20046;-68
2022/02/12 02:31:56;;;;;;;21.10;10.88;;;;;;;1.68;99.14;101272.53;6289670;28;20040;-68
2022/02/12 02:34:57;;;;;;;20.17;11.13;;;;;;;1.60;99.76;101283.69;6324323;28;20511;-70
2022/02/12 02:38:05;;;;;;;19.67;11.13;;;;;;;1.50;100.00;101284.59;6304925;28;20071;-69
2022/02/12 02:41:06;;;;;;;20.23;11.13;;;;;;;1.50;100.00;101284.59;6292147;28;20119;-69
2022/02/12 02:44:07;;;;;;;20.65;10.77;;;;;;;1.51;99.32;101283.75;6324014;28;20503;-68
2022/02/12 02:57:06;;;;;;;25.00;10.77;;;;;;;1.36;99.73;101315.53;6323438;28;20578;-68
2022/02/12 03:00:08;;;;;;;21.25;11.35;;;;;;;1.26;99.46;101307.84;6305758;28;20044;-68
2022/02/12 03:03:09;;;;;;;24.05;11.10;;;;;;;1.26;99.58;101320.72;6305627;28;20097;-68
2022/02/12 03:06:11;;;;;;;21.58;10.80;;;;;;;1.24;99.60;101314.72;6323511;28;20063;-69
2022/02/12 03:09:12;;;;;;;24.33;11.48;;;;;;;1.24;100.00;101328.41;6323494;28;20119;-68
2022/02/12 03:12:13;;;;;;;30.17;12.45;;;;;;;1.16;100.00;101325.00;6305286;28;20092;-68
2022/02/12 03:15:14;;;;;;;40.10;13.43;;;;;;;1.10;99.50;101336.16;6288765;28;20405;-68
2022/02/12 03:18:15;;;;;;;29.50;12.38;;;;;;;1.03;100.00;101346.44;6304589;28;20044;-69
2022/02/12 03:21:15;;;;;;;33.63;13.32;;;;;;;0.99;100.00;101349.03;6323307;28;20533;-69
2022/02/12 03:24:16;;;;;;;39.25;13.27;;;;;;;0.95;100.00;101355.03;6304721;28;20052;-68
2022/02/12 03:27:17;;;;;;;26.42;12.15;;;;;;;0.85;100.00;101344.75;6305002;28;20576;-68
2022/02/12 03:30:18;;;;;;;35.75;13.20;;;;;;;0.82;100.00;101355.88;6304905;28;20562;-68
2022/02/12 03:33:19;;;;;;;39.53;13.15;;;;;;;0.78;100.00;101361.88;6288311;28;20048;-68
2022/02/12 03:36:19;;;;;;;24.60;11.23;;;;;;;0.81;100.00;101369.59;6305112;28;20043;-68
2022/02/12 03:39:20;;;;;;;22.45;11.40;;;;;;;0.82;100.00;101373.00;6304762;28;20131;-68
2022/02/12 03:42:21;;;;;;;21.35;10.85;;;;;;;0.83;100.00;101377.31;6322521;28;20123;-68
2022/02/12 03:45:22;;;;;;;18.45;10.13;;;;;;;0.75;100.00;101378.13;6322804;28;20132;-69
2022/02/12 03:48:24;;;;;;;16.08;8.90;;;;;;;0.79;100.00;101384.16;6304664;28;20415;-68
2022/02/12 03:51:25;;;;;;;18.52;9.50;;;;;;;0.77;100.00;101388.44;6322374;28;20040;-68
2022/02/12 03:54:26;;;;;;;20.58;9.27;;;;;;;0.69;100.00;101390.97;6304441;28;20097;-68
2022/02/12 03:57:27;;;;;;;18.20;9.85;;;;;;;0.70;100.00;101404.69;6322077;28;20101;-68
2022/02/12 04:00:28;;;;;;;18.35;9.07;;;;;;;0.71;100.00;101411.53;6322247;28;20071;-68
2022/02/12 04:03:29;;;;;;;17.65;9.18;;;;;;;0.71;100.00;101420.09;6270871;28;20051;-68
2022/02/12 04:06:29;;;;;;;17.85;8.57;;;;;;;0.72;100.00;101408.09;6322010;28;20044;-68
2022/02/12 04:09:30;;;;;;;20.65;9.00;;;;;;;0.75;99.95;101408.13;6303984;28;20060;-68
2022/02/12 04:12:31;;;;;;;20.25;9.48;;;;;;;0.74;99.19;101411.53;6303884;28;20044;-68
2022/02/12 04:15:32;;;;;;;13.82;8.20;;;;;;;0.72;100.00;101423.53;6321945;28;20469;-68
2022/02/12 04:18:33;;;;;;;16.10;9.18;;;;;;;0.70;99.47;101420.97;6303970;28;20044;-69
2022/02/12 04:21:33;;;;;;;14.75;8.50;;;;;;;0.71;98.36;101426.97;6287263;28;20044;-68
2022/02/12 04:24:34;;;;;;;18.27;8.25;;;;;;;0.66;98.01;101426.97;6303625;28;20082;-68
2022/02/12 04:27:36;;;;;;;16.33;8.63;;;;;;;0.63;96.52;101421.81;6303786;28;20055;-68
2022/02/12 04:30:38;;;;;;;20.05;8.90;;;;;;;0.60;96.22;101421.81;6321639;28;20036;-71
2022/02/12 04:33:38;;;;;;;15.82;9.18;;;;;;;0.53;97.64;101436.31;6287119;28;20131;-73
2022/02/12 04:36:39;;;;;;;18.13;9.00;;;;;;;0.46;100.00;101432.03;6303799;28;20112;-72
2022/02/12 04:39:40;;;;;;;15.30;7.88;;;;;;;0.44;99.16;101441.47;6286998;28;20142;-72
2022/02/12 04:42:41;;;;;;;16.00;9.43;;;;;;;0.41;98.93;101431.16;6303329;28;20044;-72
2022/02/12 04:45:42;;;;;;;14.38;8.48;;;;;;;0.38;98.70;101437.16;6303371;28;20499;-72
2022/02/12 04:48:48;;;;;;;16.67;8.80;;;;;;;0.35;99.00;101443.97;6303527;28;20507;-72
2022/02/12 04:51:49;;;;;;;16.58;8.63;;;;;;;0.32;97.72;101454.25;6321246;28;20056;-72
2022/02/12 04:54:50;;;;;;;17.42;8.70;;;;;;;0.25;97.44;101442.22;6321021;28;20124;-72
2022/02/12 04:57:51;;;;;;;14.90;8.00;;;;;;;0.24;97.33;101440.53;6245455;28;20405;-71
2022/02/12 05:00:51;;;;;;;24.35;10.23;;;;;;;0.09;97.47;101436.19;6296097;28;20044;-72
2022/02/12 05:03:53;;;;;;;39.38;12.32;;;;;;;0.10;98.28;101440.47;6295924;28;20128;-72
2022/02/12 05:06:54;;;;;;;20.08;9.52;;;;;;;0.02;99.17;101450.69;6296112;28;20397;-72
2022/02/12 05:09:54;;;;;;;21.83;10.40;;;;;;;0.03;99.65;101452.41;6296061;28;20044;-72
2022/02/12 05:12:55;;;;;;;20.45;10.23;;;;;;;0.03;99.68;101452.41;6277964;28;20617;-72
2022/02/12 05:15:56;;;;;;;29.17;12.40;;;;;;;0.03;99.50;101455.00;6296015;28;20075;-72
2022/02/12 05:18:57;;;;;;;27.60;11.80;;;;;;;0.02;97.99;101450.69;6277864;28;20053;-72
2022/02/12 05:21:57;;;;;;;39.88;12.50;;;;;;;0.04;97.55;101468.66;6278030;28;20480;-68
2022/02/12 05:24:58;;;;;;;50.80;12.43;;;;;;;0.00;97.54;101465.25;6295667;28;20428;-68
2022/02/12 05:27:59;;;;;;;51.72;14.73;;;;;;;-0.01;98.07;101466.94;6261402;28;20052;-68
2022/02/12 05:30:59;;;;;;;68.88;17.75;;;;;;;0.01;97.98;101469.53;6278003;28;20413;-68
2022/02/12 05:34:00;;;;;;;52.70;13.85;;;;;;;-0.06;97.87;101466.06;6295762;28;20127;-68
2022/02/12 05:37:01;;;;;;;41.50;12.27;;;;;;;-0.11;98.19;101466.88;6295616;28;20041;-68
2022/02/12 05:40:02;;;;;;;39.88;12.45;;;;;;;-0.12;97.23;101471.16;6278242;28;20166;-67
2022/02/12 05:43:03;;;;;;;37.25;12.25;;;;;;;-0.12;98.03;101478.88;6282571;28;20075;-68
2022/02/12 05:46:05;;;;;;;31.83;10.85;;;;;;;-0.13;98.08;101482.28;6300315;28;20048;-67
2022/02/12 05:49:07;;;;;;;28.40;11.55;;;;;;;-0.28;98.85;101495.00;6283332;28;20119;-68
2022/02/12 05:52:08;;;;;;;32.13;13.80;;;;;;;-0.37;100.00;101492.38;6322143;28;20048;-67
2022/02/12 05:55:09;;;;;;;27.38;11.45;;;;;;;-0.33;100.00;101496.66;6326025;28;20727;-67
2022/02/12 05:58:10;;;;;;;29.45;11.57;;;;;;;-0.32;100.00;101494.13;6308028;28;20122;-68
2022/02/12 06:01:11;;;;;;;32.78;13.65;;;;;;;-0.25;99.67;101497.59;6285446;28;20055;-68
2022/02/12 06:04:12;;;;;;;39.42;15.80;;;;;;;-0.24;100.00;101510.44;6266337;28;20068;-68
2022/02/12 06:07:13;;;;;;;41.80;17.23;;;;;;;-0.23;99.87;101512.16;6266373;28;20482;-67
2022/02/12 06:10:14;;;;;;;32.33;15.48;;;;;;;-0.21;99.86;101522.41;6300504;28;20048;-71
2022/02/12 06:13:14;;;;;;;42.33;16.63;;;;;;;-0.20;98.72;101529.28;6282441;28;20056;-71
2022/02/12 06:16:15;;;;;;;48.85;20.45;;;;;;;-0.19;98.83;101532.69;6280774;28;20059;-71
2022/02/12 06:19:16;;;;;;;48.97;17.90;;;;;;;-0.18;97.93;101539.56;6314258;28;20041;-71
2022/02/12 06:22:17;;;;;;;42.30;16.65;;;;;;;-0.11;98.25;101542.16;6281801;28;20102;-71
2022/02/12 06:25:18;;;;;;;42.20;15.40;;;;;;;-0.04;99.13;101554.19;6281477;28;20444;-72
2022/02/12 06:28:19;;;;;;;45.92;17.00;;;;;;;0.04;97.73;101555.94;6299247;28;20052;-72
2022/02/12 06:31:19;;;;;;;36.03;13.50;;;;;;;0.07;97.61;101549.13;6281250;28;20496;-72
2022/02/12 06:34:20;;;;;;;32.83;14.32;;;;;;;0.13;97.12;101556.84;6281193;28;20040;-72
2022/02/12 06:37:21;;;;;;;31.67;13.63;;;;;;;0.20;97.29;101560.31;6304420;28;20067;-72
2022/02/12 06:40:22;;;;;;;38.40;18.60;;;;;;;0.28;97.37;101557.78;6297425;28;20044;-72
2022/02/12 06:43:23;;;;;;;35.13;16.63;;;;;;;0.35;97.45;101557.84;6281970;28;20048;-72
2022/02/12 06:46:24;;;;;;;28.70;13.95;;;;;;;0.46;97.60;101555.31;6296262;28;20070;-72
2022/02/12 06:49:25;;;;;;;26.52;13.25;;;;;;;0.57;98.74;101563.06;6307724;28;20041;-72
2022/02/12 06:52:25;;;;;;;21.88;11.25;;;;;;;0.69;99.74;101565.69;6297599;28;20105;-72
2022/02/12 06:55:26;;;;;;;22.30;11.18;;;;;;;0.81;100.00;101585.44;6298418;28;20544;-71
2022/02/12 06:58:27;;;;;;;36.45;12.13;;;;;;;0.90;100.00;101590.59;6298691;28;20051;-71
2022/02/12 07:01:28;;;;;;;24.50;12.88;;;;;;;0.93;100.00;101595.75;6298477;28;20047;-72
2022/02/12 07:04:30;;;;;;;41.00;17.15;;;;;;;1.06;100.00;101593.22;6280461;28;20040;-72
2022/02/12 07:07:31;;;;;;;40.50;17.00;;;;;;;1.21;99.15;101595.81;6264314;28;20071;-72
2022/02/12 07:10:34;;;;;;;33.75;13.40;;;;;;;1.37;98.39;101604.44;6298454;28;20037;-68
2022/02/12 07:13:35;;;;;;;30.63;11.38;;;;;;;1.55;98.96;101606.19;6298138;28;20044;-68
2022/02/12 07:16:36;;;;;;;27.55;13.63;;;;;;;1.66;98.79;101607.03;6309461;28;20456;-68
2022/02/12 07:19:37;;;;;;;26.02;12.38;;;;;;;1.76;97.55;101611.34;6305999;28;20041;-68
2022/02/12 07:22:40;;;;;;;20.70;11.70;;;;;;;1.89;97.23;101622.47;6299836;28;20036;-68
2022/02/12 07:25:40;;;;;;;;;;;;;;;2.05;94.48;101618.19;6289150;28;20039;-72
2022/02/12 07:28:42;;;;;;;19.90;10.05;;;;;;;2.22;93.26;101613.91;6305237;28;20060;-71
2022/02/12 07:31:43;;;;;;;16.67;9.82;;;;;;;2.33;90.96;101626.75;6305044;28;20051;-71
2022/02/12 07:34:43;;;;;;;21.30;11.80;;;;;;;2.50;91.25;101631.84;6279884;28;20501;-68
2022/02/12 07:37:46;;;;;;;17.88;10.68;;;;;;;2.61;92.41;101627.56;6279868;28;20044;-69
2022/02/12 07:40:47;;;;;;;19.83;10.95;;;;;;;2.77;91.03;101643.81;6297584;28;20044;-68
2022/02/12 07:43:48;;;;;;;19.38;10.45;;;;;;;2.95;87.23;101642.03;6297592;28;20044;-68
2022/02/12 07:46:50;;;;;;;17.00;8.55;;;;;;;3.05;84.40;101645.41;6297344;28;20037;-68
2022/02/12 07:49:51;;;;;;;14.98;8.02;;;;;;;3.21;82.52;101652.22;6297524;28;20052;-69
2022/02/12 07:52:52;;;;;;;20.33;9.20;;;;;;;3.32;84.33;101657.34;6297365;28;20049;-69
2022/02/12 07:55:53;;;;;;;15.30;8.20;;;;;;;3.48;85.94;101655.50;6262680;28;20712;-68
2022/02/12 07:58:54;;;;;;;15.98;9.30;;;;;;;3.55;85.56;101660.63;6279514;28;20048;-69
2022/02/12 08:01:55;;;;;;;20.75;10.32;;;;;;;3.64;85.15;101657.13;6279303;28;20469;-68
2022/02/12 08:04:55;;;;;;;15.70;7.70;;;;;;;3.76;79.92;101669.09;6278973;28;20037;-72
2022/02/12 08:07:56;;;;;;;15.30;8.05;;;;;;;3.91;81.96;101668.13;6273292;28;20129;-72
2022/02/12 08:14:16;;;;;;;15.45;7.10;;;;;;;4.07;78.32;101684.38;6264863;28;20044;-72
2022/02/12 08:17:18;;;;;;;14.65;6.28;;;;;;;4.19;76.21;101687.69;6278986;28;20072;-72
2022/02/12 08:20:19;;;;;;;13.85;6.78;;;;;;;4.36;73.42;101689.28;6279059;28;20062;-71
2022/02/12 08:23:20;;;;;;;10.52;5.20;;;;;;;4.43;70.26;101693.53;6266955;28;20420;-72
2022/02/12 08:26:21;;;;;;;12.30;5.97;;;;;;;4.61;70.61;101695.94;6302990;28;20044;-73
2022/02/12 08:29:26;;;;;;;11.13;5.57;;;;;;;4.74;68.99;101709.59;6299537;28;20396;-72
2022/02/12 08:32:27;;;;;;;12.95;5.68;;;;;;;4.84;68.43;101693.09;6296477;28;20068;-73
2022/02/12 08:35:28;;;;;;;9.60;5.30;;;;;;;4.99;68.06;101709.34;6261900;28;20364;-73
2022/02/12 08:38:29;;;;;;;10.85;5.97;;;;;;;5.13;65.29;101712.63;6261837;28;20368;-72
2022/02/12 08:41:30;;;;;;;13.93;6.78;;;;;;;5.14;65.49;101718.63;6296130;28;20036;-72
2022/02/12 08:44:30;;;;;;;14.77;6.75;;;;;;;5.38;69.02;101720.06;6295987;28;20041;-72
2022/02/12 08:47:31;;;;;;;15.35;7.20;;;;;;;5.53;68.21;101729.38;6278005;28;20116;-72
2022/02/12 08:50:32;;;;;;;10.90;6.40;;;;;;;5.65;67.53;101730.06;6261459;28;20139;-69
2022/02/12 08:53:33;;;;;;;12.52;6.85;;;;;;;5.83;65.32;101738.47;6261408;28;20052;-69
2022/02/12 08:56:36;;;;;;;15.23;6.85;;;;;;;5.92;66.83;101737.47;6295582;28;20093;-69
2022/02/12 08:59:37;;;;;;;15.52;7.13;;;;;;;5.79;65.49;101741.97;6295793;28;20041;-69
2022/02/12 09:02:38;;;;;;;15.00;7.88;;;;;;;6.10;65.92;101736.38;6277833;28;20094;-69
2022/02/12 09:05:39;;;;;;;13.98;8.02;;;;;;;5.86;63.91;101746.16;6295661;28;20055;-68
2022/02/12 09:08:40;;;;;;;8.40;5.50;;;;;;;5.98;60.78;101748.63;6277981;28;20458;-69
2022/02/12 09:11:42;;;;;;;12.18;6.25;;;;;;;5.83;60.70;101759.19;6261344;28;20110;-69
2022/02/12 09:14:43;;;;;;;12.20;5.72;;;;;;;5.81;60.67;101766.13;6295626;28;20044;-69
2022/02/12 09:17:44;;;;;;;11.27;6.07;;;;;;;5.87;65.21;101768.63;6266340;28;20385;-69
2022/02/12 09:20:44;;;;;;;14.00;5.75;;;;;;;6.17;64.11;101771.66;6282843;28;20405;-69
2022/02/12 09:23:45;;;;;;;10.90;6.05;;;;;;;6.01;64.94;101771.03;6300684;28;20044;-69
2022/02/12 09:26:46;;;;;;;16.60;6.43;;;;;;;6.10;64.09;101777.84;6266067;28;20043;-69
2022/02/12 09:29:48;;;;;;;12.63;6.63;;;;;;;6.41;63.16;101779.06;6300512;28;20037;-72
2022/02/12 09:32:50;;;;;;;14.00;6.68;;;;;;;6.45;62.70;101775.53;6282731;28;20123;-73
2022/02/12 09:35:56;;;;;;;15.60;7.60;;;;;;;6.56;61.51;101783.13;6265981;28;20094;-72
2022/02/12 09:38:57;;;;;;;16.17;8.23;;;;;;;6.53;63.00;101790.97;6266651;28;20068;-73
2022/02/12 09:41:58;;;;;;;13.20;6.50;;;;;;;6.36;58.30;101795.56;6300146;28;20484;-73
2022/02/12 09:44:59;;;;;;;15.25;7.03;;;;;;;6.39;60.34;101798.97;6265790;28;20588;-73
2022/02/12 09:48:00;;;;;;;14.98;7.20;;;;;;;6.35;60.01;101802.50;6282134;28;20048;-73
2022/02/12 09:51:03;;;;;;;14.50;6.37;;;;;;;6.46;58.13;101799.72;6282254;28;20037;-69
2022/02/12 09:54:04;;;;;;;10.07;5.82;;;;;;;6.40;59.74;101810.19;6282235;28;20052;-70
2022/02/12 09:57:06;;;;;;;10.07;5.13;;;;;;;6.56;57.62;101805.63;6281856;28;20409;-71
2022/02/12 10:00:10;;;;;;;7.78;4.95;;;;;;;6.05;58.42;101803.78;6282168;28;20075;-71
2022/02/12 10:03:11;;;;;;;10.60;5.75;;;;;;;6.62;59.92;101808.13;6281793;28;20037;-68
2022/02/12 10:06:12;;;;;;;12.07;6.40;;;;;;;6.75;58.17;101803.56;6300014;28;20110;-68
2022/02/12 10:09:14;;;;;;;9.73;4.65;;;;;;;6.67;56.55;101811.47;6281699;28;20050;-68
2022/02/12 10:12:22;;;;;;;9.30;4.68;;;;;;;6.97;54.40;101809.25;6281958;28;20126;-68
2022/02/12 10:15:29;;;;;;;10.52;5.20;;;;;;;7.03;54.45;101814.31;6299282;28;20041;-68
2022/02/12 10:18:35;;;;;;;12.75;5.57;;;;;;;6.88;53.93;101812.00;6299230;28;20064;-68
2022/02/12 10:21:37;;;;;;;10.80;5.68;;;;;;;7.24;57.59;101813.06;6281234;28;20421;-68
2022/02/12 10:24:51;;;;;;;14.00;5.75;;;;;;;7.16;57.25;101808.00;6299216;28;20131;-69
2022/02/12 10:27:53;;;;;;;9.48;5.93;;;;;;;7.57;56.33;101806.34;6298810;28;20094;-68
2022/02/12 10:30:55;;;;;;;13.73;6.35;;;;;;;7.45;57.18;101815.25;6299094;28;20410;-69
2022/02/12 10:33:56;;;;;;;9.48;5.45;;;;;;;7.41;57.11;101804.94;6298992;28;20051;-69
2022/02/12 10:36:58;;;;;;;12.82;6.75;;;;;;;6.67;58.07;101801.09;6281169;28;20487;-68
2022/02/12 10:40:01;;;;;;;14.48;7.28;;;;;;;6.64;58.81;101796.81;6281054;28;20048;-70
2022/02/12 10:43:02;;;;;;;10.50;5.90;;;;;;;6.79;57.88;101808.66;6298793;28;20043;-71
2022/02/12 10:46:06;;;;;;;11.70;4.55;;;;;;;7.17;54.72;101801.09;6264370;28;20113;-70
2022/02/12 10:49:10;;;;;;;9.32;3.70;;;;;;;7.10;52.76;101807.28;6298659;28;20043;-70
2022/02/12 10:52:11;;;;;;;10.07;4.30;;;;;;;7.01;52.69;101805.72;6281122;28;20041;-71
2022/02/12 10:55:37;;;;;;;10.68;4.32;;;;;;;7.45;52.44;101804.00;6280568;28;20053;-71
2022/02/12 10:58:39;;;;;;;5.68;3.40;;;;;;;7.57;50.34;101798.53;6298458;28;20037;-71
2022/02/12 11:01:41;;;;;;;5.70;2.95;;;;;;;7.52;50.29;101794.34;6280711;28;20048;-72
2022/02/12 11:04:43;;;;;;;5.05;3.30;;;;;;;7.44;52.54;101794.50;6263784;28;20544;-72
2022/02/12 11:07:44;;;;;;;8.93;3.42;;;;;;;7.56;50.64;101794.25;6298137;28;20052;-72
2022/02/12 11:10:44;;;;;;;7.13;3.53;;;;;;;7.80;50.33;101800.69;6298135;28;20036;-72
2022/02/12 11:13:46;;;;;;;8.70;3.60;;;;;;;7.65;51.02;101795.78;6297984;28;20055;-72
2022/02/12 11:16:47;;;;;;;6.18;3.78;;;;;;;7.68;53.49;101793.16;6297939;28;20043;-72
2022/02/12 11:19:52;;;;;;;7.07;3.92;;;;;;;7.80;52.27;101792.00;6297832;28;20049;-72
2022/02/12 11:23:24;;;;;;;11.60;4.57;;;;;;;7.81;49.60;101798.94;6297812;28;20040;-72
2022/02/12 11:26:25;;;;;;;10.65;3.50;;;;;;;7.74;49.76;101797.34;6279980;28;20447;-72
2022/02/12 11:29:36;;;;;;;8.27;3.65;;;;;;;7.90;52.48;101795.28;6297680;28;20052;-72
2022/02/12 11:32:42;;;;;;;5.97;3.55;;;;;;;8.00;49.81;101787.22;6279726;28;20036;-72
2022/02/12 11:35:43;;;;;;;7.00;3.78;;;;;;;7.96;50.95;101793.38;6279501;28;20056;-73
2022/02/12 11:38:48;;;;;;;10.63;4.10;;;;;;;7.92;48.87;101786.53;6278828;28;20412;-72
2022/02/12 11:41:51;;;;;;;8.25;4.35;;;;;;;7.94;48.82;101789.97;6279728;28;20511;-72
2022/02/12 11:44:52;;;;;;;7.60;3.80;;;;;;;8.10;49.51;101782.69;6297139;28;20045;-73
2022/02/12 11:48:18;;;;;;;7.65;3.95;;;;;;;7.88;50.05;101783.16;6279377;28;20093;-73
2022/02/12 11:51:30;;;;;;;6.22;3.95;;;;;;;7.17;50.17;101770.78;6262939;28;20071;-73
2022/02/12 11:54:43;;;;;;;9.57;3.70;;;;;;;7.33;52.18;101781.75;6279277;28;20048;-72
2022/02/12 11:57:45;;;;;;;8.00;3.95;;;;;;;7.72;53.44;101774.00;6296827;28;20041;-72
2022/02/12 12:00:45;;;;;;;8.23;3.70;;;;;;;7.97;50.32;101778.63;6246173;28;20048;-72
2022/02/12 12:04:05;;;;;;;9.13;4.10;;;;;;;8.19;50.32;101773.81;6262103;28;20052;-73
2022/02/12 12:07:13;;;;;;;9.27;5.13;;;;;;;8.22;48.27;101779.78;6296811;28;20040;-73
2022/02/12 12:10:15;;;;;;;8.38;3.75;;;;;;;7.49;50.46;101784.88;6296822;28;20064;-73
2022/02/12 12:13:17;;;;;;;8.18;4.93;;;;;;;7.35;50.38;101787.75;6279113;28;20555;-73
2022/02/12 12:16:23;;;;;;;12.38;4.47;;;;;;;7.65;49.12;101783.66;6296540;28;20050;-73
2022/02/12 12:19:27;;;;;;;6.25;3.00;;;;;;;7.71;47.48;101793.06;6278724;28;20542;-73
2022/02/12 12:22:29;;;;;;;9.18;3.28;;;;;;;7.72;48.89;101787.00;6296307;28;20037;-73
2022/02/12 12:25:53;;;;;;;6.80;3.20;;;;;;;7.75;46.12;101780.88;6296403;28;20040;-73
2022/02/12 12:32:16;;;;;;;8.07;3.70;;;;;;;8.21;46.05;101783.28;6278236;28;20048;-73
2022/02/12 12:35:17;;;;;;;5.10;2.70;;;;;;;7.89;45.01;101778.84;6296264;28;20043;-74
2022/02/12 12:38:18;;;;;;;5.53;2.97;;;;;;;7.88;45.63;101779.69;6261505;28;20097;-73
2022/02/12 12:41:34;;;;;;;5.55;2.92;;;;;;;7.98;45.74;101782.97;6278236;28;20040;-73
2022/02/12 12:44:35;;;;;;;7.88;3.60;;;;;;;8.13;46.12;101782.59;6278756;28;20043;-73
2022/02/12 12:47:36;;;;;;;6.95;3.70;;;;;;;8.12;45.21;101780.06;6277814;28;20056;-73
2022/02/12 12:50:39;;;;;;;7.35;3.15;;;;;;;8.00;42.33;101787.22;6277589;28;20044;-73
2022/02/12 12:53:40;;;;;;;7.57;2.80;;;;;;;7.67;42.51;101778.44;6278314;28;20479;-73
2022/02/12 12:56:40;;;;;;;8.43;3.00;;;;;;;7.76;42.57;101779.97;6295727;28;20053;-73
2022/02/12 12:59:53;;;;;;;10.00;3.30;;;;;;;7.52;43.04;101782.22;6261239;28;20048;-73
2022/02/12 13:02:56;;;;;;;6.30;3.13;;;;;;;7.76;43.30;101773.06;6295866;28;20044;-73
2022/02/12 13:06:03;;;;;;;9.88;3.08;;;;;;;7.85;40.81;101772.84;6295782;28;20044;-73
2022/02/12 13:09:05;;;;;;;3.92;2.38;;;;;;;7.61;39.73;101768.19;6295726;28;20116;-73
2022/02/12 13:12:25;;;;;;;3.72;2.65;;;;;;;7.42;41.95;101773.75;6295690;28;20041;-73
2022/02/12 13:15:37;;;;;;;5.55;2.60;;;;;;;7.52;41.08;101770.97;6295733;28;20047;-73
2022/02/12 13:18:38;;;;;;;5.80;2.30;;;;;;;7.66;39.53;101774.16;6295488;28;20124;-74
2022/02/12 13:21:50;;;;;;;5.35;2.80;;;;;;;7.62;40.20;101760.34;6261273;28;20048;-74
2022/02/12 13:24:53;;;;;;;6.72;2.70;;;;;;;7.73;41.10;101764.47;6295408;28;20032;-73
2022/02/12 13:27:56;;;;;;;4.78;2.45;;;;;;;7.59;39.93;101773.41;6295547;28;20037;-73
2022/02/12 13:30:57;;;;;;;5.32;2.53;;;;;;;7.49;38.58;101771.88;6277455;28;20118;-73
2022/02/12 13:34:03;;;;;;;4.70;2.58;;;;;;;7.52;38.93;101768.38;6295699;28;20054;-73
2022/02/12 13:37:07;;;;;;;8.77;3.00;;;;;;;7.69;40.95;101773.22;6260872;28;20419;-72
2022/02/12 13:40:14;;;;;;;4.47;2.28;;;;;;;7.30;39.21;101788.72;6295299;28;20396;-74
2022/02/12 13:43:19;;;;;;;5.28;2.28;;;;;;;7.21;39.06;101776.78;6295211;28;20083;-73
2022/02/12 13:46:20;;;;;;;5.60;2.58;;;;;;;7.20;39.04;101775.06;6295308;28;20056;-73
2022/02/12 13:49:25;;;;;;;3.43;2.00;;;;;;;7.33;38.08;101768.75;6277410;28;20059;-73
2022/02/12 13:52:26;;;;;;;4.88;2.20;;;;;;;7.11;39.79;101762.28;6277452;28;20051;-74
2022/02/12 13:55:30;;;;;;;5.07;2.20;;;;;;;6.95;38.73;101777.28;6277269;28;20044;-73
2022/02/12 13:58:30;;;;;;;4.90;2.70;;;;;;;6.86;38.41;101783.50;6295032;28;20032;-73
2022/02/12 14:01:31;;;;;;;6.30;2.33;;;;;;;6.57;38.54;101771.88;6261853;28;20071;-74
2022/02/12 14:04:32;;;;;;;6.00;2.10;;;;;;;6.68;39.31;101768.25;6281781;28;20071;-72
2022/02/12 14:07:33;;;;;;;13.13;4.35;;;;;;;6.77;38.68;101774.13;6265163;28;20047;-73
2022/02/12 14:10:35;;;;;;;11.45;4.53;;;;;;;6.48;38.71;101784.16;6281564;28;20501;-74
2022/02/12 14:13:36;;;;;;;5.18;2.33;;;;;;;6.30;39.00;101790.47;6281753;28;20055;-73
2022/02/12 14:16:42;;;;;;;27.20;7.80;;;;;;;6.40;39.14;101784.25;6299347;28;20044;-73
2022/02/12 14:19:43;;;;;;;7.20;2.28;;;;;;;6.30;38.78;101786.16;6299290;28;20047;-73